Time;durP1;ratioP1;P1;durP2;ratioP2;P2;SDS_P1;SDS_P2;PMS_P1;PMS_P2;Temp;Humidity;BMP_temperature;BMP_pressure;BME280_temperature;BME280_humidity;BME280_pressure;Samples;Min_cycle;Max_cycle;Signal;HPM_P1;HPM_P2
2022/12/08 00:03:39;;;;;;;7.97;3.40;;;;;;;0.94;100.00;100768.75;10583968;27;20042;-70
2022/12/08 00:13:59;;;;;;;30.13;18.57;;;;;;;1.11;100.00;100763.06;10580598;27;20040;-71
2022/12/08 00:18:59;;;;;;;20.77;14.43;;;;;;;1.35;100.00;100780.81;10580605;28;20028;-71
2022/12/08 00:24:00;;;;;;;4.60;4.03;;;;;;;1.31;100.00;100739.66;10563988;28;20044;-72
2022/12/08 00:29:00;;;;;;;5.07;2.35;;;;;;;1.55;100.00;100756.53;10581084;28;20039;-71
2022/12/08 00:34:01;;;;;;;3.30;2.77;;;;;;;1.48;100.00;100740.19;10580501;27;20042;-71
2022/12/08 00:39:01;;;;;;;5.90;3.03;;;;;;;1.45;100.00;100737.91;10580597;28;20477;-71
2022/12/08 00:44:02;;;;;;;2.60;2.33;;;;;;;1.44;100.00;100735.38;10562632;28;20043;-71
2022/12/08 00:49:03;;;;;;;6.33;2.43;;;;;;;1.38;100.00;100716.13;10587570;27;20058;-71
2022/12/08 00:54:04;;;;;;;6.17;2.50;;;;;;;1.39;100.00;100703.41;10572379;27;20187;-71
2022/12/08 00:59:05;;;;;;;18.73;10.57;;;;;;;1.48;100.00;100706.81;10587142;27;22610;-71
2022/12/08 01:04:07;;;;;;;42.97;26.85;;;;;;;1.47;100.00;100692.41;10589180;28;20048;-71
2022/12/08 01:09:08;;;;;;;43.23;26.30;;;;;;;1.42;100.00;100684.03;10590915;27;20080;-71
2022/12/08 01:14:08;;;;;;;16.38;10.48;;;;;;;1.36;100.00;100677.50;10588003;27;20063;-71
2022/12/08 01:19:13;;;;;;;4.85;3.70;;;;;;;1.52;100.00;100694.53;10570060;27;20055;-72
2022/12/08 01:24:16;;;;;;;3.58;2.55;;;;;;;1.45;100.00;100693.63;10587954;27;20043;-70
2022/12/08 01:29:17;;;;;;;2.47;2.20;;;;;;;1.40;100.00;100703.19;10587746;27;20039;-71
2022/12/08 01:34:18;;;;;;;2.63;2.42;;;;;;;1.37;100.00;100698.19;10554159;27;20047;-72
2022/12/08 01:39:18;;;;;;;5.47;2.40;;;;;;;1.22;100.00;100673.06;10585004;27;20110;-71
2022/12/08 01:44:18;;;;;;;2.75;2.50;;;;;;;1.30;100.00;100691.03;10569659;27;20062;-71
2022/12/08 01:49:31;;;;;;;4.85;3.53;;;;;;;1.27;100.00;100694.16;10588411;27;20057;-71
2022/12/08 01:54:54;;;;;;;10.00;4.40;;;;;;;1.23;100.00;100690.16;10586339;27;20046;-71
2022/12/08 02:00:06;;;;;;;9.07;4.00;;;;;;;1.12;100.00;100662.56;10569636;27;20118;-71
2022/12/08 02:05:07;;;;;;;4.20;2.40;;;;;;;1.17;100.00;100673.63;10583142;27;20097;-71
2022/12/08 02:10:08;;;;;;;2.50;2.30;;;;;;;1.26;100.00;100685.19;10585873;27;20038;-72
2022/12/08 02:15:10;;;;;;;3.83;2.20;;;;;;;1.22;100.00;100670.34;10587341;27;20027;-71
2022/12/08 02:20:19;;;;;;;8.30;2.15;;;;;;;1.36;100.00;100680.22;10565751;28;20039;-72
2022/12/08 02:25:41;;;;;;;3.33;2.20;;;;;;;1.40;100.00;100680.66;10585458;27;20395;-71
2022/12/08 02:31:10;;;;;;;8.47;3.30;;;;;;;1.05;100.00;100620.97;10587612;27;20043;-71
2022/12/08 02:36:34;;;;;;;5.63;2.97;;;;;;;1.53;100.00;100680.78;10568726;27;20191;-71
2022/12/08 02:41:46;;;;;;;4.57;2.00;;;;;;;1.56;100.00;100668.66;10587028;27;20095;-72
2022/12/08 02:47:14;;;;;;;3.97;2.00;;;;;;;1.49;100.00;100655.06;10567256;27;20059;-72
2022/12/08 02:52:17;;;;;;;2.70;2.00;;;;;;;1.45;100.00;100633.94;10554203;28;20059;-72
2022/12/08 02:57:37;;;;;;;1.60;1.50;;;;;;;1.33;100.00;100634.53;10585348;27;20040;-71
2022/12/08 03:02:58;;;;;;;2.33;1.70;;;;;;;1.31;100.00;100628.47;10567363;27;20062;-71
2022/12/08 03:08:10;;;;;;;2.90;2.00;;;;;;;1.25;100.00;100623.00;10584123;28;20039;-71
2022/12/08 03:13:16;;;;;;;2.08;1.85;;;;;;;1.25;100.00;100634.69;10583172;27;20035;-72
2022/12/08 03:18:17;;;;;;;2.40;2.20;;;;;;;1.22;100.00;100618.81;10562101;27;20151;-71
2022/12/08 03:23:18;;;;;;;2.30;2.10;;;;;;;1.12;100.00;100602.06;10565073;27;20047;-71
2022/12/08 03:28:18;;;;;;;2.78;2.13;;;;;;;1.14;100.00;100608.13;10565890;28;20040;-71
2022/12/08 03:33:24;;;;;;;5.85;2.63;;;;;;;1.17;100.00;100622.09;10564970;27;20040;-71
2022/12/08 03:38:24;;;;;;;6.40;2.83;;;;;;;1.18;100.00;100617.53;10565898;27;20042;-71
2022/12/08 03:43:25;;;;;;;4.93;2.28;;;;;;;1.08;100.00;100598.91;10584044;27;20047;-71
2022/12/08 03:48:25;;;;;;;4.40;2.43;;;;;;;1.16;100.00;100603.34;10544463;28;20032;-71
2022/12/08 03:53:26;;;;;;;2.35;2.10;;;;;;;1.21;100.00;100612.53;10539385;28;20063;-71
2022/12/08 03:58:26;;;;;;;3.27;2.63;;;;;;;1.25;100.00;100612.97;10556872;28;20047;-71
2022/12/08 04:03:27;;;;;;;5.40;2.70;;;;;;;1.23;100.00;100623.19;10541414;28;20063;-72
2022/12/08 04:08:27;;;;;;;8.00;2.90;;;;;;;0.86;100.00;100545.81;10541683;28;20028;-71
2022/12/08 04:13:28;;;;;;;5.37;2.80;;;;;;;1.23;100.00;100604.22;10547294;27;20043;-71
2022/12/08 04:18:28;;;;;;;2.47;2.13;;;;;;;1.18;100.00;100585.00;10582459;27;20036;-72
2022/12/08 04:23:29;;;;;;;5.00;1.83;;;;;;;1.15;100.00;100590.81;10580963;27;20040;-71
2022/12/08 04:28:29;;;;;;;2.83;1.98;;;;;;;1.11;100.00;100578.69;10580601;28;20068;-71
2022/12/08 04:33:30;;;;;;;4.10;2.40;;;;;;;1.14;100.00;100589.16;10563777;28;20055;-72
2022/12/08 04:38:30;;;;;;;6.47;2.60;;;;;;;1.14;100.00;100589.16;10583248;28;20449;-71
2022/12/08 04:43:31;;;;;;;5.55;3.60;;;;;;;1.06;100.00;100589.31;10546536;27;20050;-71
2022/12/08 04:48:31;;;;;;;10.73;10.07;;;;;;;1.13;100.00;100590.16;10581308;28;20032;-72
2022/12/08 04:53:32;;;;;;;16.40;15.50;;;;;;;1.14;100.00;100591.88;10581918;28;20401;-71
2022/12/08 04:58:32;;;;;;;16.30;15.40;;;;;;;1.11;100.00;100600.38;10580133;28;20038;-71
2022/12/08 05:03:33;;;;;;;16.45;15.73;;;;;;;1.12;100.00;100592.06;10583268;28;20043;-71
2022/12/08 05:08:33;;;;;;;16.55;15.75;;;;;;;1.16;100.00;100608.78;10582521;28;20042;-71
2022/12/08 05:13:34;;;;;;;15.88;15.18;;;;;;;1.18;100.00;100607.53;10579086;28;20036;-71
2022/12/08 05:18:35;;;;;;;16.23;15.40;;;;;;;1.11;100.00;100601.22;10562608;27;20035;-71
2022/12/08 05:23:36;;;;;;;16.20;15.40;;;;;;;1.16;100.00;100608.78;10578952;28;20035;-71
2022/12/08 05:28:36;;;;;;;16.53;15.53;;;;;;;1.07;100.00;100588.25;10579661;28;20032;-71
2022/12/08 05:33:37;;;;;;;16.10;15.30;;;;;;;1.07;100.00;100593.69;10582716;27;20039;-70
2022/12/08 05:38:37;;;;;;;16.40;15.40;;;;;;;1.00;100.00;100566.53;10589575;27;20515;-72
2022/12/08 05:43:38;;;;;;;16.40;15.50;;;;;;;1.00;100.00;100563.81;10587111;28;20455;-71
2022/12/08 05:48:38;;;;;;;16.93;15.97;;;;;;;0.87;100.00;100567.28;10586064;27;20032;-72
2022/12/08 05:53:39;;;;;;;16.27;15.33;;;;;;;0.93;100.00;100590.03;10587360;27;20067;-70
2022/12/08 05:58:39;;;;;;;16.03;15.10;;;;;;;0.86;100.00;100581.88;10569971;27;20039;-70
2022/12/08 06:03:40;;;;;;;16.47;15.53;;;;;;;0.86;100.00;100579.16;10587914;27;20046;-71
2022/12/08 06:08:40;;;;;;;16.43;15.40;;;;;;;0.82;100.00;100569.75;10569607;27;20031;-71
2022/12/08 06:13:41;;;;;;;17.07;16.13;;;;;;;0.75;100.00;100571.59;10565622;27;20061;-71
2022/12/08 06:18:44;;;;;;;20.17;18.15;;;;;;;0.70;100.00;100566.72;10568484;27;20031;-71
2022/12/08 06:23:49;;;;;;;17.30;16.03;;;;;;;0.74;100.00;100578.84;10584896;28;20060;-71
2022/12/08 06:28:49;;;;;;;17.00;15.90;;;;;;;0.72;100.00;100563.84;10585454;27;20047;-71
2022/12/08 06:33:50;;;;;;;16.30;15.10;;;;;;;0.67;100.00;100567.13;10568009;27;20043;-70
2022/12/08 06:38:50;;;;;;;15.90;14.90;;;;;;;0.66;100.00;100561.91;10568729;27;20588;-71
2022/12/08 06:43:51;;;;;;;15.20;14.37;;;;;;;0.54;100.00;100559.75;10549379;27;20044;-71
2022/12/08 06:48:51;;;;;;;15.27;14.43;;;;;;;0.52;100.00;100564.53;10566807;27;20032;-71
2022/12/08 06:53:52;;;;;;;16.13;14.50;;;;;;;0.46;100.00;100557.19;10584610;27;20047;-71
2022/12/08 06:58:52;;;;;;;14.17;13.27;;;;;;;0.38;100.00;100568.16;10586059;27;20027;-70
2022/12/08 07:03:53;;;;;;;13.70;12.70;;;;;;;0.23;100.00;100554.69;10586244;27;20542;-72
2022/12/08 07:08:53;;;;;;;14.33;13.43;;;;;;;0.23;100.00;100586.34;10586366;27;20035;-71
2022/12/08 07:13:57;;;;;;;14.50;13.63;;;;;;;0.07;100.00;100572.03;10583660;27;20065;-71
2022/12/08 07:18:58;;;;;;;13.93;13.17;;;;;;;0.04;100.00;100585.94;10581752;27;20038;-71
2022/12/08 07:23:59;;;;;;;14.65;13.77;;;;;;;0.00;100.00;100598.22;10566083;27;20099;-71
2022/12/08 07:28:59;;;;;;;14.43;13.03;;;;;;;0.02;100.00;100606.94;10583272;27;20043;-70
2022/12/08 07:34:00;;;;;;;15.53;14.00;;;;;;;-0.12;100.00;100591.63;10583027;27;20486;-71
2022/12/08 07:39:00;;;;;;;14.17;13.27;;;;;;;-0.10;100.00;100612.03;10584680;27;20077;-70
2022/12/08 07:44:01;;;;;;;13.63;12.73;;;;;;;-0.25;100.00;100601.25;10582329;27;20058;-71
2022/12/08 07:49:02;;;;;;;13.47;12.40;;;;;;;-0.28;100.00;100607.03;10583630;27;20043;-71
2022/12/08 07:54:02;;;;;;;13.80;12.53;;;;;;;-0.35;100.00;100595.31;10581525;27;20050;-70
2022/12/08 07:59:03;;;;;;;12.67;12.07;;;;;;;-0.35;100.00;100599.84;10581335;27;20077;-70
2022/12/08 08:04:04;;;;;;;13.67;12.50;;;;;;;-0.27;100.00;100606.03;10577705;28;20035;-70
2022/12/08 08:09:04;;;;;;;14.23;13.30;;;;;;;-0.32;100.00;100596.78;10541387;28;20065;-71
2022/12/08 08:14:05;;;;;;;13.60;12.80;;;;;;;-0.40;100.00;100597.72;10560975;28;20032;-71
2022/12/08 08:19:05;;;;;;;13.67;12.70;;;;;;;-0.56;100.00;100570.91;10559336;28;20058;-71
2022/12/08 08:24:06;;;;;;;15.07;13.77;;;;;;;-0.44;100.00;100591.03;10541451;28;20396;-71
2022/12/08 08:29:06;;;;;;;14.70;13.50;;;;;;;-0.39;100.00;100603.97;10559306;28;20063;-71
2022/12/08 08:34:07;;;;;;;15.03;14.03;;;;;;;-0.42;100.00;100605.19;10561050;28;20047;-71
2022/12/08 08:39:08;;;;;;;14.83;13.93;;;;;;;-0.45;100.00;100602.88;10556689;27;20036;-71
2022/12/08 08:44:08;;;;;;;15.70;14.50;;;;;;;-0.50;100.00;100611.53;10581559;28;20039;-71
2022/12/08 08:49:09;;;;;;;15.80;14.80;;;;;;;-0.55;100.00;100610.44;10581400;28;20063;-72
2022/12/08 08:54:09;;;;;;;16.97;15.43;;;;;;;-0.62;100.00;100608.50;10581301;27;20031;-71
2022/12/08 08:59:10;;;;;;;17.37;15.40;;;;;;;-0.69;100.00;100602.13;10563586;27;20051;-71
2022/12/08 09:04:10;;;;;;;17.45;15.95;;;;;;;-0.48;100.00;100616.75;10575953;27;20042;-71
2022/12/08 09:09:11;;;;;;;17.50;15.67;;;;;;;-0.32;100.00;100616.56;10561684;28;20113;-71
2022/12/08 09:14:13;;;;;;;19.37;16.60;;;;;;;-0.07;100.00;100622.47;10533188;27;20043;-70
2022/12/08 09:19:13;;;;;;;17.73;16.13;;;;;;;-0.13;100.00;100609.69;10548594;28;20036;-71
2022/12/08 09:24:15;;;;;;;18.43;16.70;;;;;;;0.09;100.00;100629.53;10568526;28;20029;-70
2022/12/08 09:29:16;;;;;;;19.63;17.97;;;;;;;0.07;100.00;100623.47;10566633;27;20442;-71
2022/12/08 09:34:17;;;;;;;21.93;19.03;;;;;;;0.18;100.00;100628.34;10565219;27;20039;-70
2022/12/08 09:39:17;;;;;;;22.10;20.23;;;;;;;0.24;100.00;100634.03;10571294;27;20081;-71
2022/12/08 09:44:39;;;;;;;21.07;19.00;;;;;;;0.33;100.00;100631.03;10565618;27;20040;-71
2022/12/08 09:49:46;;;;;;;20.73;18.90;;;;;;;0.36;100.00;100618.97;10546849;28;20104;-71
2022/12/08 09:54:47;;;;;;;21.63;20.13;;;;;;;0.50;100.00;100628.91;10545047;28;20043;-70
2022/12/08 09:59:53;;;;;;;22.40;20.50;;;;;;;0.38;100.00;100606.91;10544845;28;20031;-71
2022/12/08 10:04:54;;;;;;;25.00;21.42;;;;;;;0.61;100.00;100616.69;10527744;27;20044;-69
2022/12/08 10:10:25;;;;;;;23.23;21.17;;;;;;;0.85;100.00;100625.41;10573064;27;20042;-71
2022/12/08 10:16:01;;;;;;;23.23;21.63;;;;;;;0.90;100.00;100604.81;10556960;27;20103;-70
2022/12/08 10:21:10;;;;;;;26.17;24.17;;;;;;;1.17;100.00;100627.53;10570273;27;20039;-71
2022/12/08 10:26:13;;;;;;;26.50;24.60;;;;;;;1.32;100.00;100624.69;10587004;27;20095;-71
2022/12/08 10:31:20;;;;;;;27.97;25.97;;;;;;;1.28;100.00;100590.91;10584723;27;20068;-71
2022/12/08 10:36:20;;;;;;;26.10;24.40;;;;;;;1.58;100.00;100617.75;10585121;27;20047;-71
2022/12/08 10:41:21;;;;;;;29.47;26.97;;;;;;;1.66;100.00;100606.72;10584405;27;20040;-71
2022/12/08 10:46:24;;;;;;;27.42;25.58;;;;;;;1.72;100.00;100597.78;10567270;27;20035;-71
2022/12/08 10:51:34;;;;;;;25.23;23.17;;;;;;;1.98;100.00;100613.28;10568383;27;20119;-70
2022/12/08 10:56:34;;;;;;;24.17;22.77;;;;;;;2.01;100.00;100591.19;10583846;27;20044;-70
2022/12/08 11:01:38;;;;;;;24.57;23.00;;;;;;;2.08;100.00;100591.19;10583885;27;20407;-71
2022/12/08 11:06:39;;;;;;;22.77;21.25;;;;;;;1.99;100.00;100600.59;10549999;27;20043;-70
2022/12/08 11:11:51;;;;;;;21.23;19.75;;;;;;;2.06;100.00;100593.28;10541303;28;20169;-71
2022/12/08 11:16:55;;;;;;;17.85;16.67;;;;;;;2.15;100.00;100586.63;10541621;28;20040;-70
2022/12/08 11:21:56;;;;;;;19.17;17.42;;;;;;;2.43;100.00;100588.31;10541134;28;20422;-71
2022/12/08 11:27:01;;;;;;;30.80;25.17;;;;;;;2.43;100.00;100578.28;10540339;28;20058;-71
2022/12/08 11:32:05;;;;;;;31.30;27.92;;;;;;;2.75;100.00;100592.09;10506700;28;20039;-71
2022/12/08 11:37:08;;;;;;;29.10;25.88;;;;;;;2.60;100.00;100565.16;10550712;28;20095;-71
2022/12/08 11:42:10;;;;;;;28.95;25.98;;;;;;;2.95;100.00;100586.63;10565898;27;20431;-70
2022/12/08 11:47:23;;;;;;;31.63;27.67;;;;;;;3.32;100.00;100573.38;10564423;27;20044;-70
2022/12/08 11:52:29;;;;;;;26.35;23.33;;;;;;;3.57;100.00;100572.66;10548588;28;20040;-70
2022/12/08 11:57:30;;;;;;;17.05;13.27;;;;;;;3.56;100.00;100571.00;10544513;27;20032;-70
2022/12/08 12:02:33;;;;;;;11.45;8.48;;;;;;;3.62;100.00;100570.16;10565164;27;20040;-71
2022/12/08 12:07:42;;;;;;;4.55;3.50;;;;;;;3.72;100.00;100559.63;10583559;27;20036;-70
2022/12/08 12:12:51;;;;;;;7.03;2.20;;;;;;;3.56;100.00;100565.56;10538162;28;20043;-71
2022/12/08 12:17:58;;;;;;;3.22;1.80;;;;;;;3.31;100.00;100552.66;10539428;28;20043;-71
2022/12/08 12:23:03;;;;;;;4.22;1.77;;;;;;;3.29;100.00;100568.38;10554761;28;20565;-70
2022/12/08 12:28:06;;;;;;;2.08;1.60;;;;;;;3.06;100.00;100560.69;10540988;28;20040;-71
2022/12/08 12:33:10;;;;;;;3.95;2.00;;;;;;;3.00;100.00;100567.81;10538477;28;20108;-71
2022/12/08 12:44:13;;;;;;;5.47;1.90;;;;;;;3.31;100.00;100563.56;10577280;28;20036;-70
2022/12/08 12:49:38;;;;;;;1.30;1.20;;;;;;;3.87;100.00;100553.06;10580538;28;20073;-70
2022/12/08 12:54:44;;;;;;;4.88;1.30;;;;;;;4.43;100.00;100533.19;10553867;28;20048;-70
2022/12/08 12:59:53;;;;;;;8.23;1.10;;;;;;;5.92;100.00;100540.34;10514236;27;20047;-70
2022/12/08 13:04:58;;;;;;;3.70;0.98;;;;;;;7.18;100.00;100526.50;10518227;27;20126;-70
2022/12/08 13:10:10;;;;;;;2.03;0.93;;;;;;;7.51;100.00;100503.91;10534942;28;20036;-70
2022/12/08 13:15:18;;;;;;;5.13;1.10;;;;;;;7.01;100.00;100505.34;10505039;28;20050;-71
2022/12/08 13:20:23;;;;;;;4.38;1.50;;;;;;;5.38;100.00;100519.19;10560257;28;20032;-71
2022/12/08 13:25:38;;;;;;;7.03;1.70;;;;;;;4.53;100.00;100530.78;10538505;28;20070;-70
2022/12/08 13:30:46;;;;;;;5.97;1.75;;;;;;;4.01;100.00;100521.94;10552620;28;20496;-71
2022/12/08 13:35:52;;;;;;;4.63;1.60;;;;;;;3.31;100.00;100479.22;10508258;28;1088128;-70
2022/12/08 13:40:53;;;;;;;7.73;1.43;;;;;;;3.47;100.00;100545.91;10529641;28;20032;-70
2022/12/08 13:45:53;;;;;;;5.20;1.38;;;;;;;3.30;100.00;100542.81;10534660;28;20282;-70
2022/12/08 13:51:15;;;;;;;7.72;3.10;;;;;;;3.16;100.00;100543.91;10537624;28;20065;-70
2022/12/08 13:56:16;;;;;;;15.70;6.20;;;;;;;3.19;100.00;100538.06;10549227;27;20073;-71
2022/12/08 14:01:19;;;;;;;8.75;4.80;;;;;;;3.12;100.00;100515.47;10545507;28;20044;-70
2022/12/08 14:06:25;;;;;;;5.00;3.28;;;;;;;3.28;100.00;100547.66;10540374;27;20103;-70
2022/12/08 14:11:46;;;;;;;10.52;2.80;;;;;;;3.28;100.00;100558.53;10502904;27;20039;-71
2022/12/08 14:16:59;;;;;;;3.08;1.27;;;;;;;3.17;100.00;100541.00;10560956;27;20039;-70
2022/12/08 14:22:10;;;;;;;9.65;2.20;;;;;;;3.08;100.00;100555.03;10560823;27;20030;-70
2022/12/08 14:27:14;;;;;;;7.85;3.78;;;;;;;2.93;100.00;100545.22;10545368;27;20061;-70
2022/12/08 14:32:31;;;;;;;10.20;3.60;;;;;;;2.91;100.00;100569.06;10544053;27;20045;-70
2022/12/08 14:37:36;;;;;;;11.20;4.03;;;;;;;2.69;100.00;100559.47;10556334;27;20044;-70
2022/12/08 14:42:48;;;;;;;6.82;1.90;;;;;;;2.60;100.00;100567.88;10506232;28;20044;-70
2022/12/08 14:47:49;;;;;;;4.20;2.03;;;;;;;2.49;100.00;100564.94;10583950;27;20144;-70
2022/12/08 14:52:50;;;;;;;4.70;1.90;;;;;;;2.40;100.00;100567.03;10584278;27;20040;-71
2022/12/08 14:57:50;;;;;;;5.22;3.00;;;;;;;2.28;100.00;100574.13;10550329;27;20035;-70
2022/12/08 15:02:51;;;;;;;3.63;2.13;;;;;;;2.19;100.00;100577.03;10585629;27;20073;-70
2022/12/08 15:07:53;;;;;;;3.75;2.50;;;;;;;2.00;100.00;100569.66;10547197;27;20048;-70
2022/12/08 15:13:07;;;;;;;5.03;2.50;;;;;;;1.75;100.00;100581.06;10558643;27;20114;-70
2022/12/08 15:18:12;;;;;;;7.68;3.00;;;;;;;1.58;100.00;100585.19;10558730;28;20040;-70
2022/12/08 15:23:25;;;;;;;5.28;2.92;;;;;;;1.39;100.00;100593.03;10557583;27;20085;-69
2022/12/08 15:28:26;;;;;;;5.33;3.27;;;;;;;1.09;100.00;100575.34;10540824;28;20085;-70
2022/12/08 15:33:27;;;;;;;9.63;6.37;;;;;;;0.85;100.00;100580.22;10541190;27;20800;-69
2022/12/08 15:38:28;;;;;;;32.20;16.52;;;;;;;0.60;100.00;100579.81;10534625;27;20075;-73
2022/12/08 15:43:31;;;;;;;22.83;13.00;;;;;;;0.40;100.00;100593.19;10498489;27;20078;-70
2022/12/08 15:48:32;;;;;;;14.52;7.78;;;;;;;0.18;100.00;100579.63;10517363;28;20493;-70
2022/12/08 15:53:32;;;;;;;12.10;7.27;;;;;;;0.13;100.00;100597.50;10558321;28;20036;-70
2022/12/08 15:58:33;;;;;;;8.90;4.70;;;;;;;-0.08;100.00;100590.22;10557644;27;20065;-71
2022/12/08 16:03:33;;;;;;;7.50;4.37;;;;;;;-0.11;100.00;100604.94;10541232;27;20466;-70
2022/12/08 16:08:35;;;;;;;8.73;4.13;;;;;;;-0.22;100.00;100611.69;10553310;28;20040;-71
2022/12/08 16:13:50;;;;;;;7.93;4.10;;;;;;;-0.35;100.00;100625.06;10532296;28;20043;-70
2022/12/08 16:18:51;;;;;;;12.10;4.47;;;;;;;-0.70;100.00;100592.38;10524204;28;20046;-70
2022/12/08 16:23:51;;;;;;;7.33;4.53;;;;;;;-0.77;100.00;100606.81;10522471;28;20055;-70
2022/12/08 16:28:52;;;;;;;7.47;4.17;;;;;;;-0.86;100.00;100625.00;10538936;27;20039;-70
2022/12/08 16:33:52;;;;;;;9.00;4.40;;;;;;;-0.91;100.00;100638.19;10540464;28;20051;-70
2022/12/08 16:38:53;;;;;;;12.10;4.80;;;;;;;-1.04;100.00;100638.84;10554445;27;20039;-71
2022/12/08 16:43:53;;;;;;;9.43;4.90;;;;;;;-1.26;100.00;100608.16;10580741;28;20032;-70
2022/12/08 16:48:56;;;;;;;11.63;6.10;;;;;;;-1.29;100.00;100608.53;10594031;27;20039;-70
2022/12/08 16:53:57;;;;;;;13.80;6.20;;;;;;;-1.21;100.00;100638.16;10577003;28;20042;-72
2022/12/08 16:58:57;;;;;;;13.60;6.77;;;;;;;-1.25;100.00;100634.16;10594232;27;20448;-72
2022/12/08 17:03:58;;;;;;;10.07;6.87;;;;;;;-1.22;100.00;100658.09;10582531;27;20035;-72
2022/12/08 17:08:58;;;;;;;15.33;8.03;;;;;;;-1.33;100.00;100642.31;10581044;28;20092;-70
2022/12/08 17:13:59;;;;;;;13.10;6.55;;;;;;;-1.42;100.00;100641.56;10579633;28;20043;-72
2022/12/08 17:18:59;;;;;;;13.20;7.23;;;;;;;-1.47;100.00;100650.22;10576857;28;20056;-72
2022/12/08 17:24:00;;;;;;;14.70;8.47;;;;;;;-1.51;100.00;100653.44;10578504;28;20032;-71
2022/12/08 17:29:01;;;;;;;14.03;8.20;;;;;;;-1.89;100.00;100592.16;10572134;27;20095;-70
2022/12/08 17:34:02;;;;;;;14.27;8.67;;;;;;;-1.68;100.00;100639.22;10588171;27;20063;-70
2022/12/08 17:39:03;;;;;;;16.93;8.70;;;;;;;-1.84;100.00;100624.84;10568727;27;20556;-69
2022/12/08 17:44:09;;;;;;;15.07;8.40;;;;;;;-2.15;100.00;100586.25;10584930;27;20028;-72
2022/12/08 17:49:10;;;;;;;;;;;;;;;-1.78;100.00;100658.34;10591694;27;20043;-72
2022/12/08 17:54:10;;;;;;;14.93;9.40;;;;;;;-1.88;100.00;100642.41;10597175;27;19919;-70
2022/12/08 17:59:11;;;;;;;17.87;9.97;;;;;;;-1.85;100.00;100655.53;10585792;27;20036;-72
2022/12/08 18:04:12;;;;;;;17.10;10.63;;;;;;;-1.84;100.00;100649.13;10583333;27;20063;-72
2022/12/08 18:09:12;;;;;;;24.93;12.10;;;;;;;-1.87;100.00;100652.16;10585256;28;20028;-72
2022/12/08 18:14:13;;;;;;;14.80;9.47;;;;;;;-1.86;100.00;100645.78;10586271;27;20035;-73
2022/12/08 18:19:13;;;;;;;22.63;12.00;;;;;;;-1.94;100.00;100632.34;10586864;27;20042;-72
2022/12/08 18:24:17;;;;;;;20.57;11.90;;;;;;;-1.92;100.00;100641.09;10584741;27;20208;-70
2022/12/08 18:29:19;;;;;;;16.93;11.07;;;;;;;-1.90;100.00;100641.75;10584947;27;20058;-70
2022/12/08 18:34:19;;;;;;;19.50;10.60;;;;;;;-1.98;100.00;100636.41;10602774;27;20209;-73
2022/12/08 18:39:30;;;;;;;19.73;10.73;;;;;;;-1.95;100.00;100649.53;10612920;27;20062;-73
2022/12/08 18:44:31;;;;;;;17.17;11.03;;;;;;;-1.95;100.00;100652.22;10581852;27;20036;-72
2022/12/08 18:49:31;;;;;;;20.00;12.13;;;;;;;-1.94;100.00;100647.66;10562180;27;20479;-73
2022/12/08 18:54:32;;;;;;;20.33;12.53;;;;;;;-1.87;100.00;100649.47;10596171;27;20046;-72
2022/12/08 18:59:32;;;;;;;19.47;12.37;;;;;;;-1.86;100.00;100653.00;10585207;27;20081;-72
2022/12/08 19:04:33;;;;;;;22.73;13.03;;;;;;;-1.93;100.00;100652.88;10548375;28;20038;-72
2022/12/08 19:09:33;;;;;;;25.53;13.67;;;;;;;-2.05;100.00;100646.22;10596386;27;20036;-73
2022/12/08 19:14:34;;;;;;;22.70;13.33;;;;;;;-2.03;100.00;100660.34;10582654;27;20043;-73
2022/12/08 19:19:35;;;;;;;23.77;14.37;;;;;;;-2.21;100.00;100638.19;10582903;27;20028;-73
2022/12/08 19:24:35;;;;;;;26.13;13.83;;;;;;;-2.21;100.00;100640.91;10584594;27;20532;-72
2022/12/08 19:29:36;;;;;;;23.13;14.10;;;;;;;-2.26;100.00;100644.97;10582168;27;20039;-73
2022/12/08 19:34:36;;;;;;;23.47;13.67;;;;;;;-2.25;100.00;100662.84;10582969;27;20046;-73
2022/12/08 19:44:59;;;;;;;25.83;14.73;;;;;;;-2.39;100.00;100662.75;10581647;27;20038;-72
2022/12/08 19:55:19;;;;;;;30.50;16.87;;;;;;;-2.48;100.00;100667.31;10566448;27;20060;-73
2022/12/08 20:00:20;;;;;;;30.60;19.00;;;;;;;-2.50;100.00;100664.81;10579473;28;20503;-73
2022/12/08 20:05:20;;;;;;;43.53;22.77;;;;;;;-2.47;100.00;100675.22;10569668;27;20027;-74
2022/12/08 20:10:29;;;;;;;47.13;23.83;;;;;;;-2.63;100.00;100648.31;10579891;27;20062;-74
2022/12/08 20:15:29;;;;;;;38.97;20.67;;;;;;;-2.53;100.00;100667.00;10566352;27;20035;-73
2022/12/08 20:20:30;;;;;;;43.33;24.97;;;;;;;-2.54;100.00;100674.25;10563030;27;20089;-73
2022/12/08 20:25:30;;;;;;;49.40;23.43;;;;;;;-2.73;100.00;100651.25;10554361;27;20043;-74
2022/12/08 20:30:31;;;;;;;44.10;23.73;;;;;;;-2.73;100.00;100648.53;10577987;27;20032;-73
2022/12/08 20:35:32;;;;;;;49.60;25.20;;;;;;;-2.60;100.00;100683.03;10508689;28;20040;-74
2022/12/08 20:40:32;;;;;;;48.17;24.23;;;;;;;-2.63;100.00;100680.66;10576331;27;20042;-74
2022/12/08 20:45:33;;;;;;;46.63;24.13;;;;;;;-2.61;100.00;100693.97;10553134;27;20042;-74
2022/12/08 20:50:33;;;;;;;42.53;23.47;;;;;;;-2.73;100.00;100680.88;10556441;28;20078;-73
2022/12/08 20:55:34;;;;;;;37.47;22.67;;;;;;;-2.71;100.00;100689.63;10518151;28;20053;-74
2022/12/08 21:00:34;;;;;;;44.90;25.17;;;;;;;-2.72;100.00;100687.94;10577150;28;20048;-72
2022/12/08 21:05:37;;;;;;;48.60;24.47;;;;;;;-2.75;100.00;100682.03;10569142;27;20035;-75
2022/12/08 21:10:38;;;;;;;51.30;25.90;;;;;;;-2.69;100.00;100695.69;10570533;27;20588;-73
2022/12/08 21:15:38;;;;;;;53.77;26.00;;;;;;;-2.69;100.00;100697.53;10569823;27;20036;-75
2022/12/08 21:20:39;;;;;;;49.17;26.83;;;;;;;-2.67;100.00;100685.59;10587549;27;20035;-72
2022/12/08 21:25:40;;;;;;;46.83;24.40;;;;;;;-2.62;100.00;100679.66;10565763;27;20040;-74
2022/12/08 21:30:42;;;;;;;43.30;24.40;;;;;;;-2.49;100.00;100697.97;10585418;27;20036;-74
2022/12/08 21:35:42;;;;;;;51.17;24.37;;;;;;;-2.40;100.00;100696.94;10569322;27;20533;-74
2022/12/08 21:40:43;;;;;;;49.80;27.33;;;;;;;-2.23;100.00;100692.34;10591783;27;20035;-74
2022/12/08 21:45:43;;;;;;;53.37;26.70;;;;;;;-2.03;100.00;100690.03;10579476;27;20039;-74
2022/12/08 21:50:44;;;;;;;52.80;27.73;;;;;;;-1.93;100.00;100676.34;10586046;27;20043;-71
2022/12/08 21:55:44;;;;;;;46.33;23.90;;;;;;;-1.80;100.00;100681.13;10566653;27;20070;-74
2022/12/08 22:00:45;;;;;;;50.33;26.30;;;;;;;-1.77;100.00;100684.34;10582282;27;20035;-72
2022/12/08 22:05:45;;;;;;;51.37;25.40;;;;;;;-1.66;100.00;100683.06;10587177;27;20423;-73
2022/12/08 22:10:47;;;;;;;55.53;26.57;;;;;;;-1.63;100.00;100680.88;10594158;27;20031;-72
2022/12/08 22:15:58;;;;;;;52.17;23.50;;;;;;;-1.63;100.00;100661.13;10609185;27;20513;-72
2022/12/08 22:20:58;;;;;;;58.17;25.07;;;;;;;-1.38;100.00;100693.34;10599765;27;20486;-73
2022/12/08 22:25:59;;;;;;;53.00;24.77;;;;;;;-1.30;100.00;100704.06;10608793;27;20035;-73
2022/12/08 22:31:00;;;;;;;57.77;26.23;;;;;;;-1.31;100.00;100691.59;10591431;27;20058;-73
2022/12/08 22:36:01;;;;;;;54.83;24.73;;;;;;;-1.15;100.00;100702.28;10625217;27;20042;-73
2022/12/08 22:41:03;;;;;;;52.10;24.87;;;;;;;-1.23;100.00;100680.72;10608771;27;20042;-72
2022/12/08 22:46:08;;;;;;;54.00;26.92;;;;;;;-1.08;100.00;100700.50;10607761;27;20095;-72
2022/12/08 22:51:10;;;;;;;51.27;25.33;;;;;;;-0.99;100.00;100705.84;10623465;27;20035;-74
2022/12/08 22:56:10;;;;;;;56.90;25.77;;;;;;;-0.85;100.00;100708.59;10616568;27;20084;-72
2022/12/08 23:01:37;;;;;;;60.30;26.50;;;;;;;-0.75;100.00;100702.91;10604305;27;20039;-73
2022/12/08 23:06:38;;;;;;;62.00;26.17;;;;;;;-0.79;100.00;100682.66;10586294;27;20047;-73
2022/12/08 23:11:38;;;;;;;59.37;27.10;;;;;;;-0.70;100.00;100688.84;10600801;27;20051;-72